Ana Sayfa
METAR-TAF:

METAR-TAF

Havaalanları :

Nouakchott, Moritanya

Enlem: 18-18-36N, Boylam: 015-58-11W, yükseklik: 3 m

Güncel hava durumu gözlemi

Rapor saat 06:00 UTC de 40 dakika önce yapıldı.
Rüzgar kuzey/kuzeybatıdan 15 kt ve 25 kt'a kadar ani rüzgarlar
Sıcaklık 27°C
Nem 74%
Basınç 1012 hPa
Görüş mesafesi: 3000 m
1300 ft yükseklikte az bulutlu
Savrulan kum

METAR: GQNO 210600Z 34015G25KT 3000 BLSA FEW013 27/22 Q1012 NOSIG

Saat: 06:40 (06:40 UTC)

Tahmin

Rapor saat 05:00 UTC de 1 saat ve 40 dakika önce yapıldı.
Ayın 21'si saat 06 UTC'den ayın 22'si saat 12 UTC'ye kadar geçerli Tahmin
Rüzgar batı/kuzeybatıdan 12 kt
Görüş mesafesi: 7000 m
1000 ft yükseklikte parçalı bulutlu
Geçici
ayın 21'si saat 06 UTC'den ayın 21'si saat 09 UTC'ye kadar
yağmur

TAF: GQNO 210500Z 2106/2212 30012KT 7000 SCT010 TEMPO 2106/2109 RA

4.000'den fazla havaalanı için hava durumu gözlemleri ve tahminleri (METAR ve TAF raporları).

Kullanılabilir istasyonlar harita üzerinde sarı ve kırmızı noktalarla gösterilir.

İstasyonun adını görmek için fareyi noktanın üzerinde gezdirin.

Sonrasında hava gözlem ve tahminlerini görmek için tıklayın.

Haritayı değiştirmek için: yaklaştırmak için siyah artı işaretli yeşil düğmeye ve uzaklaştırmak için de eksi işaretli düğmeye hızla tıklayın; bitişik haritalar için yeşil okları kullanın.


METAR-TAF: